createdAt,value
2022-10-28T00:01:31.180Z,72.00
2022-10-28T00:04:01.237Z,72.00
2022-10-28T00:06:33.758Z,72.00
2022-10-28T00:09:11.279Z,72.10
2022-10-28T00:11:45.454Z,72.00
2022-10-28T00:14:14.447Z,72.10
2022-10-28T00:16:46.661Z,72.10
2022-10-28T00:19:15.796Z,72.10
2022-10-28T00:21:43.781Z,72.10
2022-10-28T00:24:12.311Z,72.10
2022-10-28T00:26:42.217Z,72.00
2022-10-28T00:29:17.669Z,71.90
2022-10-28T00:31:47.716Z,71.90
2022-10-28T00:34:17.669Z,71.90
2022-10-28T00:36:47.366Z,71.90
2022-10-28T00:39:23.043Z,71.70
2022-10-28T00:42:06.368Z,71.60
2022-10-28T00:44:58.387Z,72.10
2022-10-28T00:48:03.760Z,71.50
2022-10-28T00:50:51.873Z,71.30
2022-10-28T00:53:29.465Z,71.00
2022-10-28T00:56:01.407Z,71.00
2022-10-28T00:58:29.293Z,71.00
2022-10-28T01:00:56.261Z,71.00
2022-10-28T01:03:26.278Z,71.10
2022-10-28T01:05:57.332Z,71.10
2022-10-28T01:08:28.831Z,71.30
2022-10-28T01:11:31.073Z,71.30
2022-10-28T01:14:17.790Z,71.50
2022-10-28T01:17:03.149Z,71.60
2022-10-28T01:19:54.798Z,71.50
2022-10-28T01:22:34.949Z,72.00
2022-10-28T01:25:27.221Z,71.60
2022-10-28T01:28:19.004Z,71.80
2022-10-28T01:31:06.729Z,71.30
2022-10-28T01:33:47.437Z,71.40
2022-10-28T01:36:47.249Z,71.40
2022-10-28T01:39:46.059Z,71.40
2022-10-28T01:43:02.730Z,71.60
2022-10-28T01:45:42.752Z,72.10
2022-10-28T01:48:22.867Z,72.40
2022-10-28T01:51:16.709Z,72.90
2022-10-28T01:53:48.966Z,73.10
2022-10-28T01:56:19.403Z,73.20
2022-10-28T01:58:47.199Z,73.30
2022-10-28T02:01:14.483Z,72.90
2022-10-28T02:03:41.175Z,73.20
2022-10-28T02:06:18.348Z,73.30
2022-10-28T02:09:05.105Z,73.80
2022-10-28T02:11:53.749Z,74.00
2022-10-28T02:14:42.438Z,73.90
2022-10-28T02:17:16.570Z,74.10
2022-10-28T02:20:10.656Z,73.90
2022-10-28T02:23:01.492Z,74.10
2022-10-28T02:25:46.276Z,74.40
2022-10-28T02:28:28.631Z,74.20
2022-10-28T02:31:03.201Z,74.10
2022-10-28T02:33:36.926Z,74.10
2022-10-28T02:36:09.749Z,74.00
2022-10-28T02:38:55.598Z,74.00
2022-10-28T02:41:34.400Z,74.00
2022-10-28T02:44:12.656Z,74.20
2022-10-28T02:46:42.793Z,74.00
2022-10-28T02:49:13.426Z,73.90
2022-10-28T02:51:50.589Z,73.70
2022-10-28T02:54:29.704Z,73.70
2022-10-28T02:57:05.702Z,74.50
2022-10-28T02:59:37.249Z,73.80
2022-10-28T03:02:04.256Z,73.50
2022-10-28T03:04:31.147Z,73.60
2022-10-28T03:07:05.089Z,73.50
2022-10-28T03:09:34.169Z,73.40
2022-10-28T03:12:00.790Z,73.30
2022-10-28T03:14:31.960Z,73.20
2022-10-28T03:17:01.550Z,73.20
2022-10-28T03:19:32.616Z,73.10
2022-10-28T03:22:09.163Z,73.10
2022-10-28T03:24:41.201Z,73.20
2022-10-28T03:27:07.990Z,73.20
2022-10-28T03:29:45.785Z,73.30
2022-10-28T03:32:13.372Z,73.30
2022-10-28T03:34:43.385Z,73.20
2022-10-28T03:37:15.570Z,73.20
2022-10-28T03:39:49.817Z,73.20
2022-10-28T03:42:16.430Z,73.20
2022-10-28T03:44:43.017Z,73.20
2022-10-28T03:47:10.381Z,73.10
2022-10-28T03:49:36.964Z,73.20
2022-10-28T03:52:04.086Z,72.80
2022-10-28T03:54:30.661Z,72.50
2022-10-28T03:56:57.276Z,72.40
2022-10-28T03:59:26.776Z,72.30
2022-10-28T04:01:53.536Z,72.20
2022-10-28T04:04:25.028Z,72.10
2022-10-28T04:06:59.004Z,72.20
2022-10-28T04:09:27.922Z,72.00
2022-10-28T04:11:57.012Z,71.70
2022-10-28T04:14:23.654Z,71.80
2022-10-28T04:16:53.257Z,71.80
2022-10-28T04:19:22.083Z,71.90
2022-10-28T04:21:49.178Z,72.00
2022-10-28T04:24:18.374Z,72.00
2022-10-28T04:26:47.344Z,72.10
2022-10-28T04:29:16.265Z,72.30
2022-10-28T04:31:42.945Z,72.40
2022-10-28T04:34:14.213Z,72.40
2022-10-28T04:36:43.195Z,72.50
2022-10-28T04:39:10.247Z,72.60
2022-10-28T04:41:36.820Z,73.30
2022-10-28T04:44:03.487Z,72.70
2022-10-28T04:46:30.068Z,72.70
2022-10-28T04:48:56.692Z,72.70
2022-10-28T04:51:23.357Z,72.80
2022-10-28T04:53:49.922Z,73.00
2022-10-28T04:56:16.546Z,73.00
2022-10-28T04:58:43.127Z,72.90
2022-10-28T05:01:10.776Z,73.00
2022-10-28T05:03:37.495Z,72.90
2022-10-28T05:06:04.209Z,73.00
2022-10-28T05:08:30.889Z,72.90
2022-10-28T05:10:57.537Z,72.70
2022-10-28T05:13:24.210Z,72.70
2022-10-28T05:15:51.286Z,72.70
2022-10-28T05:18:18.200Z,72.70
2022-10-28T05:20:44.930Z,72.60
2022-10-28T05:23:12.354Z,72.40
2022-10-28T05:25:39.015Z,72.30
2022-10-28T05:28:05.599Z,72.20
2022-10-28T05:30:32.240Z,72.30
2022-10-28T05:33:01.484Z,72.30
2022-10-28T05:35:32.231Z,72.20
2022-10-28T05:37:58.918Z,72.20
2022-10-28T05:40:25.821Z,72.30
2022-10-28T05:42:52.713Z,72.60
2022-10-28T05:45:19.799Z,72.60
2022-10-28T05:47:48.049Z,72.60
2022-10-28T05:50:17.321Z,72.50
2022-10-28T05:52:48.863Z,72.40
2022-10-28T05:55:18.810Z,72.40
2022-10-28T05:57:46.553Z,72.40
2022-10-28T06:00:16.639Z,72.30
2022-10-28T06:02:43.368Z,72.40
2022-10-28T06:05:10.921Z,72.50
2022-10-28T06:07:38.385Z,72.80
2022-10-28T06:10:08.919Z,73.00
2022-10-28T06:15:06.567Z,73.60
2022-10-28T06:17:33.165Z,73.90
2022-10-28T06:19:59.780Z,74.00
2022-10-28T06:22:26.356Z,74.10
2022-10-28T06:24:52.970Z,74.20
2022-10-28T06:27:19.598Z,74.00
2022-10-28T06:29:48.934Z,74.00
2022-10-28T06:32:15.534Z,74.00
2022-10-28T06:34:42.274Z,74.00
2022-10-28T06:37:09.338Z,73.80
2022-10-28T06:39:38.163Z,73.60
2022-10-28T06:42:04.824Z,73.50
2022-10-28T06:44:31.462Z,73.50
2022-10-28T06:47:00.089Z,73.50
2022-10-28T06:49:28.102Z,73.50
2022-10-28T06:51:54.694Z,73.60
2022-10-28T06:54:21.429Z,73.70
2022-10-28T06:56:48.088Z,74.10
2022-10-28T06:59:14.721Z,74.10
2022-10-28T07:01:41.676Z,74.20
2022-10-28T07:04:15.168Z,74.30
2022-10-28T07:06:41.891Z,74.70
2022-10-28T07:09:12.963Z,74.70
2022-10-28T07:11:40.016Z,74.80
2022-10-28T07:14:06.597Z,74.80
2022-10-28T07:16:33.203Z,74.90
2022-10-28T07:18:59.841Z,74.80
2022-10-28T07:21:28.427Z,74.90
2022-10-28T07:23:56.341Z,74.90
2022-10-28T07:26:23.923Z,74.90
2022-10-28T07:28:51.027Z,75.00
2022-10-28T07:31:18.209Z,74.80
2022-10-28T07:33:45.145Z,74.90
2022-10-28T07:36:11.981Z,75.10
2022-10-28T07:38:38.592Z,75.00
2022-10-28T07:41:06.690Z,75.00
2022-10-28T07:43:38.552Z,75.10
2022-10-28T07:46:07.160Z,75.10
2022-10-28T07:48:35.295Z,75.30
2022-10-28T07:51:03.819Z,75.40
2022-10-28T07:53:30.634Z,75.60
2022-10-28T07:56:05.699Z,75.80
2022-10-28T07:58:32.589Z,75.90
2022-10-28T08:01:08.425Z,75.90
2022-10-28T08:03:39.061Z,75.80
2022-10-28T08:06:12.764Z,75.80
2022-10-28T08:08:39.641Z,76.20
2022-10-28T08:11:14.020Z,75.70
2022-10-28T08:13:40.850Z,76.30
2022-10-28T08:16:08.125Z,76.20
2022-10-28T08:18:36.181Z,76.40
2022-10-28T08:21:04.100Z,76.40
2022-10-28T08:23:30.707Z,76.40
2022-10-28T08:25:57.533Z,76.60
2022-10-28T08:28:26.395Z,76.90
2022-10-28T08:31:07.562Z,76.90
2022-10-28T08:33:39.316Z,77.00
2022-10-28T08:36:07.429Z,77.10
2022-10-28T08:38:34.116Z,77.10
2022-10-28T08:41:19.217Z,77.00
2022-10-28T08:43:57.737Z,77.20
2022-10-28T08:46:51.178Z,77.30
2022-10-28T08:49:21.830Z,77.70
2022-10-28T08:51:48.363Z,77.30
2022-10-28T08:54:20.528Z,77.20
2022-10-28T08:56:48.835Z,77.80
2022-10-28T08:59:30.581Z,77.00
2022-10-28T09:02:00.967Z,77.10
2022-10-28T09:04:40.633Z,76.80
2022-10-28T09:07:20.601Z,76.70
2022-10-28T09:09:54.342Z,76.70
2022-10-28T09:12:31.853Z,76.30
2022-10-28T09:15:13.183Z,76.20
2022-10-28T09:17:58.076Z,76.10
2022-10-28T09:20:48.129Z,76.10
2022-10-28T09:23:14.702Z,75.80
2022-10-28T09:25:52.812Z,75.60
2022-10-28T09:28:31.528Z,75.40
2022-10-28T09:31:15.839Z,75.20
2022-10-28T09:33:53.978Z,74.90
2022-10-28T09:36:47.855Z,74.70
2022-10-28T09:39:22.712Z,74.20
2022-10-28T09:41:53.667Z,74.20
2022-10-28T09:44:36.311Z,74.20
2022-10-28T09:47:12.102Z,73.90
2022-10-28T09:49:39.907Z,73.80
2022-10-28T09:52:15.368Z,73.50
2022-10-28T09:54:50.350Z,73.00
2022-10-28T09:57:17.603Z,73.00
2022-10-28T09:59:44.778Z,72.50
2022-10-28T10:02:32.275Z,72.20
2022-10-28T10:05:01.744Z,71.60
2022-10-28T10:07:40.757Z,71.50
2022-10-28T10:10:15.767Z,71.20
2022-10-28T10:12:43.163Z,71.10
2022-10-28T10:15:19.091Z,71.30
2022-10-28T10:17:47.691Z,71.10
2022-10-28T10:20:19.335Z,71.10
2022-10-28T10:22:48.190Z,71.00
2022-10-28T10:25:20.049Z,70.90
2022-10-28T10:27:57.736Z,70.60
2022-10-28T10:30:46.808Z,70.40
2022-10-28T10:33:23.734Z,70.80
2022-10-28T10:36:00.097Z,70.70
2022-10-28T10:38:28.063Z,70.60
2022-10-28T10:40:54.705Z,70.60
2022-10-28T10:43:23.359Z,70.40
2022-10-28T10:46:02.156Z,70.40
2022-10-28T10:48:30.223Z,70.20
2022-10-28T10:50:56.946Z,70.40
2022-10-28T10:53:26.927Z,70.40
2022-10-28T10:56:01.167Z,70.50
2022-10-28T10:58:36.992Z,70.40
2022-10-28T11:01:07.228Z,70.00
2022-10-28T11:03:38.310Z,70.00
2022-10-28T11:06:24.418Z,69.20
2022-10-28T11:09:01.305Z,69.00
2022-10-28T11:11:38.991Z,68.10
2022-10-28T11:14:13.224Z,67.40
2022-10-28T11:16:53.295Z,67.90
2022-10-28T11:19:28.722Z,67.20
2022-10-28T11:22:21.090Z,66.80
2022-10-28T11:25:30.308Z,66.00
2022-10-28T11:28:34.785Z,65.80
2022-10-28T11:31:14.708Z,65.60
2022-10-28T11:34:09.485Z,64.90
2022-10-28T11:37:16.293Z,64.70
2022-10-28T11:39:42.887Z,64.50
2022-10-28T11:42:30.659Z,64.40
2022-10-28T11:45:19.984Z,63.00
2022-10-28T11:48:00.300Z,63.10
2022-10-28T11:50:35.288Z,62.00
2022-10-28T11:53:23.371Z,62.40
2022-10-28T11:56:08.860Z,62.10
2022-10-28T11:58:53.552Z,61.00
2022-10-28T12:01:29.072Z,60.40
2022-10-28T12:04:05.342Z,59.80
2022-10-28T12:06:54.260Z,58.90
2022-10-28T12:09:30.887Z,58.10
2022-10-28T12:12:26.687Z,57.30
2022-10-28T12:15:16.309Z,57.40
2022-10-28T12:18:00.954Z,56.80
2022-10-28T12:20:54.447Z,56.30
2022-10-28T12:23:24.270Z,56.00
2022-10-28T12:25:55.228Z,56.20
2022-10-28T12:28:24.880Z,55.80
2022-10-28T12:30:53.238Z,55.20
2022-10-28T12:33:25.625Z,55.80
2022-10-28T12:36:04.129Z,54.70
2022-10-28T12:38:46.671Z,54.00
2022-10-28T12:41:21.641Z,54.40
2022-10-28T12:44:04.533Z,54.20
2022-10-28T12:47:01.643Z,53.30
2022-10-28T12:50:02.373Z,53.40
2022-10-28T12:52:44.204Z,54.00
2022-10-28T12:57:51.785Z,53.70
2022-10-28T13:00:29.403Z,53.50
2022-10-28T13:03:02.316Z,52.80
2022-10-28T13:05:46.318Z,52.70
2022-10-28T13:08:30.171Z,52.00
2022-10-28T13:11:20.124Z,52.80
2022-10-28T13:13:53.936Z,52.50
2022-10-28T13:16:39.009Z,52.70
2022-10-28T13:19:17.846Z,52.60
2022-10-28T13:22:18.255Z,51.80
2022-10-28T13:25:21.495Z,52.00
2022-10-28T13:27:54.604Z,51.50
2022-10-28T13:30:22.726Z,52.20
2022-10-28T13:33:06.475Z,52.00
2022-10-28T13:35:34.377Z,51.00
2022-10-28T13:38:02.518Z,51.80
2022-10-28T13:40:31.849Z,51.60
2022-10-28T13:43:00.102Z,51.80
2022-10-28T13:45:48.605Z,52.00
2022-10-28T13:48:42.627Z,51.70
2022-10-28T13:51:09.176Z,51.70
2022-10-28T13:53:45.965Z,52.00
2022-10-28T13:56:18.495Z,51.60
2022-10-28T13:59:06.186Z,51.60
2022-10-28T14:02:01.961Z,51.70
2022-10-28T14:04:39.229Z,51.90
2022-10-28T14:07:12.512Z,52.10
2022-10-28T14:09:41.570Z,52.00
2022-10-28T14:12:25.932Z,51.90
2022-10-28T14:15:04.830Z,51.40
2022-10-28T14:17:40.278Z,51.80
2022-10-28T14:20:19.152Z,51.80
2022-10-28T14:22:45.809Z,51.70
2022-10-28T14:25:44.726Z,52.20
2022-10-28T14:28:29.969Z,52.10
2022-10-28T14:31:08.637Z,52.30
2022-10-28T14:33:53.536Z,51.90
2022-10-28T14:36:20.109Z,51.90
2022-10-28T14:39:08.323Z,52.60
2022-10-28T14:41:59.463Z,52.00
2022-10-28T14:45:00.251Z,52.00
2022-10-28T14:47:55.093Z,51.70
2022-10-28T14:50:38.892Z,51.60
2022-10-28T14:53:28.834Z,51.60
2022-10-28T14:56:09.424Z,51.60
2022-10-28T14:58:44.272Z,51.40
2022-10-28T15:01:16.737Z,51.60
2022-10-28T15:03:45.923Z,52.00
2022-10-28T15:06:33.061Z,52.00
2022-10-28T15:09:19.931Z,51.90
2022-10-28T15:11:53.355Z,52.00
2022-10-28T15:14:26.310Z,51.90
2022-10-28T15:16:53.915Z,51.90
2022-10-28T15:19:23.818Z,52.30
2022-10-28T15:22:00.142Z,52.20
2022-10-28T15:24:26.903Z,52.00
2022-10-28T15:26:55.464Z,52.50
2022-10-28T15:29:23.278Z,52.40
2022-10-28T15:32:35.295Z,52.60
2022-10-28T15:35:29.835Z,52.30
2022-10-28T15:37:59.818Z,52.30
2022-10-28T15:40:34.454Z,52.50
2022-10-28T15:43:05.746Z,52.70
2022-10-28T15:45:39.675Z,52.90
2022-10-28T15:48:14.250Z,53.10
2022-10-28T15:50:41.514Z,53.00
2022-10-28T15:53:36.068Z,53.20
2022-10-28T15:56:27.002Z,53.00
2022-10-28T15:59:01.842Z,53.20
2022-10-28T16:01:38.650Z,53.50
2022-10-28T16:04:07.104Z,53.50
2022-10-28T16:06:38.146Z,53.90
2022-10-28T16:09:06.542Z,54.20
2022-10-28T16:11:39.128Z,54.30
2022-10-28T16:14:32.325Z,54.30
2022-10-28T16:17:19.255Z,54.40
2022-10-28T16:19:49.695Z,54.70
2022-10-28T16:22:18.284Z,55.10
2022-10-28T16:24:45.629Z,55.10
2022-10-28T16:27:16.962Z,55.30
2022-10-28T16:29:43.714Z,55.50
2022-10-28T16:32:14.921Z,55.70
2022-10-28T16:34:41.734Z,55.90
2022-10-28T16:37:29.490Z,56.10
2022-10-28T16:39:57.663Z,56.50
2022-10-28T16:42:27.436Z,56.40
2022-10-28T16:44:54.125Z,56.60
2022-10-28T16:47:22.364Z,56.80
2022-10-28T16:49:52.624Z,57.00
2022-10-28T16:52:30.148Z,57.10
2022-10-28T16:54:57.742Z,57.40
2022-10-28T16:57:25.204Z,57.40
2022-10-28T16:59:54.650Z,57.50
2022-10-28T17:02:38.727Z,57.60
2022-10-28T17:05:09.588Z,57.90
2022-10-28T17:07:40.690Z,58.00
2022-10-28T17:10:13.631Z,58.10
2022-10-28T17:12:45.060Z,58.20
2022-10-28T17:15:16.736Z,58.40
2022-10-28T17:17:43.453Z,58.50
2022-10-28T17:20:10.391Z,58.60
2022-10-28T17:22:39.690Z,58.70
2022-10-28T17:25:16.393Z,58.90
2022-10-28T17:27:48.750Z,58.80
2022-10-28T17:30:20.261Z,58.90
2022-10-28T17:32:52.449Z,59.00
2022-10-28T17:35:22.833Z,59.40
2022-10-28T17:37:49.508Z,59.50
2022-10-28T17:40:19.391Z,59.60
2022-10-28T17:42:48.422Z,59.90
2022-10-28T17:45:19.425Z,59.90
2022-10-28T17:47:50.029Z,60.20
2022-10-28T17:50:19.376Z,60.60
2022-10-28T17:52:45.954Z,60.70
2022-10-28T17:55:17.240Z,61.00
2022-10-28T17:57:45.498Z,61.20
2022-10-28T18:00:15.341Z,61.50
2022-10-28T18:02:43.248Z,61.90
2022-10-28T18:05:10.026Z,62.10
2022-10-28T18:07:36.627Z,62.30
2022-10-28T18:10:09.273Z,62.50
2022-10-28T18:12:38.479Z,62.80
2022-10-28T18:15:05.593Z,62.80
2022-10-28T18:17:32.190Z,62.90
2022-10-28T18:20:01.499Z,62.90
2022-10-28T18:22:30.763Z,62.90
2022-10-28T18:24:57.386Z,63.00
2022-10-28T18:27:41.226Z,63.20
2022-10-28T18:30:08.388Z,63.50
2022-10-28T18:32:35.054Z,63.40
2022-10-28T18:35:04.074Z,63.50
2022-10-28T18:37:33.734Z,63.50
2022-10-28T18:40:00.350Z,63.70
2022-10-28T18:42:32.105Z,63.90
2022-10-28T18:45:02.534Z,64.00
2022-10-28T18:47:29.209Z,64.10
2022-10-28T18:49:55.848Z,64.40
2022-10-28T18:52:23.376Z,64.50
2022-10-28T18:54:50.002Z,64.90
2022-10-28T18:57:17.002Z,65.10
2022-10-28T19:00:17.229Z,65.20
2022-10-28T19:02:43.388Z,65.50
2022-10-28T19:05:16.860Z,65.50
2022-10-28T19:07:46.085Z,65.60
2022-10-28T19:10:12.697Z,65.60
2022-10-28T19:12:45.016Z,65.60
2022-10-28T19:15:15.904Z,65.90
2022-10-28T19:17:42.533Z,66.10
2022-10-28T19:20:12.271Z,66.10
2022-10-28T19:22:40.369Z,66.20
2022-10-28T19:25:07.221Z,66.10
2022-10-28T19:27:38.651Z,66.20
2022-10-28T19:30:12.353Z,66.10
2022-10-28T19:32:44.641Z,65.90
2022-10-28T19:35:12.491Z,66.00
2022-10-28T19:37:40.330Z,66.00
2022-10-28T19:40:07.606Z,66.00
2022-10-28T19:42:38.716Z,65.90
2022-10-28T19:45:12.280Z,65.70
2022-10-28T19:47:42.572Z,65.60
2022-10-28T19:50:13.956Z,65.20
2022-10-28T19:52:45.847Z,65.20
2022-10-28T19:55:15.029Z,65.00
2022-10-28T19:57:42.069Z,64.70
2022-10-28T20:00:10.103Z,64.60
2022-10-28T20:02:42.079Z,64.90
2022-10-28T20:05:12.602Z,64.90
2022-10-28T20:07:39.241Z,65.20
2022-10-28T20:10:13.713Z,65.00
2022-10-28T20:12:41.600Z,65.10
2022-10-28T20:15:11.939Z,65.10
2022-10-28T20:17:40.807Z,65.00
2022-10-28T20:20:07.982Z,65.20
2022-10-28T20:22:38.573Z,65.30
2022-10-28T20:25:11.097Z,65.20
2022-10-28T20:27:43.145Z,65.40
2022-10-28T20:30:12.348Z,65.60
2022-10-28T20:32:38.966Z,65.50
2022-10-28T20:35:10.218Z,65.40
2022-10-28T20:37:37.090Z,65.60
2022-10-28T20:40:07.480Z,65.80
2022-10-28T20:42:38.587Z,66.10
2022-10-28T20:45:05.718Z,66.50
2022-10-28T20:47:34.873Z,66.60
2022-10-28T20:50:11.751Z,66.80
2022-10-28T20:52:41.267Z,67.00
2022-10-28T20:55:08.107Z,67.20
2022-10-28T20:57:34.782Z,67.20
2022-10-28T21:00:03.996Z,67.30
2022-10-28T21:02:30.695Z,67.30
2022-10-28T21:04:58.401Z,67.30
2022-10-28T21:07:27.432Z,67.30
2022-10-28T21:09:59.360Z,67.00
2022-10-28T21:12:25.964Z,67.00
2022-10-28T21:14:58.196Z,66.90
2022-10-28T21:17:27.115Z,66.80
2022-10-28T21:19:53.766Z,66.60
2022-10-28T21:22:23.380Z,66.50
2022-10-28T21:24:54.465Z,66.50
2022-10-28T21:27:23.420Z,66.50
2022-10-28T21:29:50.073Z,66.40
2022-10-28T21:32:16.801Z,66.50
2022-10-28T21:34:45.615Z,66.50
2022-10-28T21:37:14.681Z,66.80
2022-10-28T21:39:43.635Z,66.70
2022-10-28T21:42:12.916Z,66.90
2022-10-28T21:44:39.947Z,67.10
2022-10-28T21:47:12.395Z,67.30
2022-10-28T21:49:41.893Z,67.40
2022-10-28T21:52:08.501Z,67.60
2022-10-28T21:54:35.116Z,67.70
2022-10-28T21:57:01.913Z,67.80
2022-10-28T21:59:28.876Z,67.80
2022-10-28T22:02:02.231Z,67.70
2022-10-28T22:04:32.597Z,67.80
2022-10-28T22:07:00.173Z,67.80
2022-10-28T22:09:26.811Z,67.80
2022-10-28T22:11:55.574Z,67.70
2022-10-28T22:14:22.185Z,67.70
2022-10-28T22:16:48.752Z,68.30
2022-10-28T22:19:18.163Z,67.30
2022-10-28T22:21:50.699Z,67.40
2022-10-28T22:24:17.330Z,67.40
2022-10-28T22:26:50.373Z,67.20
2022-10-28T22:29:23.198Z,67.20
2022-10-28T22:31:52.956Z,67.30
2022-10-28T22:34:22.648Z,67.30
2022-10-28T22:36:51.802Z,67.30
2022-10-28T22:39:18.395Z,67.40
2022-10-28T22:41:44.957Z,67.40
2022-10-28T22:44:11.632Z,67.70
2022-10-28T22:46:46.808Z,67.90
2022-10-28T22:49:13.468Z,68.60
2022-10-28T22:51:45.351Z,68.10
2022-10-28T22:54:15.574Z,68.30
2022-10-28T22:56:45.546Z,68.40
2022-10-28T22:59:12.197Z,68.50
2022-10-28T23:01:41.321Z,68.70
2022-10-28T23:04:11.695Z,68.70
2022-10-28T23:06:38.524Z,69.10
2022-10-28T23:09:05.228Z,68.90
2022-10-28T23:11:34.030Z,69.00
2022-10-28T23:14:00.812Z,69.10
2022-10-28T23:16:31.417Z,69.20
2022-10-28T23:19:03.655Z,69.30
2022-10-28T23:21:30.226Z,69.60
2022-10-28T23:24:01.439Z,69.50
2022-10-28T23:26:29.522Z,69.60
2022-10-28T23:28:59.966Z,69.80
2022-10-28T23:31:30.531Z,70.00
2022-10-28T23:34:01.116Z,70.00
2022-10-28T23:36:30.325Z,70.00
2022-10-28T23:38:57.304Z,70.50
2022-10-28T23:41:26.802Z,70.20
2022-10-28T23:43:53.386Z,70.40
2022-10-28T23:46:25.011Z,70.20
2022-10-28T23:49:01.308Z,70.10
2022-10-28T23:51:29.109Z,70.00
2022-10-28T23:53:57.538Z,70.70
2022-10-28T23:56:24.248Z,70.10
2022-10-28T23:58:53.401Z,70.30
